Time;durP1;ratioP1;P1;durP2;ratioP2;P2;SDS_P1;SDS_P2;PMS_P1;PMS_P2;Temp;Humidity;BMP_temperature;BMP_pressure;BME280_temperature;BME280_humidity;BME280_pressure;Samples;Min_cycle;Max_cycle;Signal;HPM_P1;HPM_P2
2022/06/08 00:02:39;;;;;;;;;;;;;;;17.09;61.90;97718.00;5072951;28;19931;-54
2022/06/08 00:08:53;;;;;;;;;;;;;;;17.07;61.77;97720.31;5068053;28;19990;-50
2022/06/08 00:11:43;;;;;;;;;;;;;;;17.06;61.92;97715.97;5071114;28;20059;-54
2022/06/08 00:14:31;;;;;;;;;;;;;;;17.03;61.91;97722.97;5072336;28;19927;-54
2022/06/08 00:17:20;;;;;;;;;;;;;;;17.01;62.17;97719.81;5071652;28;20287;-54
2022/06/08 00:20:10;;;;;;;;;;;;;;;17.03;62.37;97711.19;5061148;28;20389;-51
2022/06/08 00:22:58;;;;;;;;;;;;;;;17.04;62.21;97712.78;5062681;28;19920;-51
2022/06/08 00:25:47;;;;;;;;;;;;;;;17.29;61.87;97705.09;5062438;28;19921;-54
2022/06/08 00:28:37;;;;;;;;;;;;;;;17.05;62.13;97708.91;5064708;28;19929;-54
2022/06/08 00:31:26;;;;;;;;;;;;;;;16.91;62.55;97712.13;5060313;28;19935;-53
2022/06/08 00:34:14;;;;;;;;;;;;;;;16.88;62.85;97698.31;5064045;28;19931;-53
2022/06/08 00:37:28;;;;;;;;;;;;;;;16.87;62.82;97696.72;5061988;28;19973;-54
2022/06/08 00:40:44;;;;;;;;;;;;;;;16.85;63.00;97699.03;5063107;28;19928;-53
2022/06/08 00:43:32;;;;;;;;;;;;;;;16.79;63.31;97695.00;5054602;28;19920;-52
2022/06/08 00:46:22;;;;;;;;;;;;;;;16.79;63.31;97698.53;5069894;28;19924;-53
2022/06/08 00:49:13;;;;;;;;;;;;;;;16.73;63.58;97698.00;5061977;28;19931;-54
2022/06/08 00:52:02;;;;;;;;;;;;;;;16.68;63.67;97695.50;5072307;28;19951;-53
2022/06/08 00:54:51;;;;;;;;;;;;;;;16.66;63.78;97702.47;5060791;28;19924;-54
2022/06/08 00:58:05;;;;;;;;;;;;;;;16.62;63.87;97694.19;5050739;28;19925;-53
2022/06/08 01:01:18;;;;;;;;;;;;;;;16.62;64.13;97693.38;5054581;28;20106;-52
2022/06/08 01:04:10;;;;;;;;;;;;;;;16.58;64.26;97698.00;5070771;28;19935;-53
2022/06/08 01:07:00;;;;;;;;;;;;;;;16.58;64.14;97690.56;5058008;28;19925;-53
2022/06/08 01:09:51;;;;;;;;;;;;;;;16.55;64.18;97685.78;5056357;28;19996;-54
2022/06/08 01:12:41;;;;;;;;;;;;;;;16.53;64.46;97681.81;5047689;28;19978;-52
2022/06/08 01:15:31;;;;;;;;;;;;;;;16.46;64.74;97679.69;5068957;28;20380;-52
2022/06/08 01:18:22;;;;;;;;;;;;;;;16.45;64.81;97675.34;5062450;28;20057;-52
2022/06/08 01:21:30;;;;;;;;;;;;;;;16.45;64.63;97676.13;5059967;28;19951;-51
2022/06/08 01:24:31;;;;;;;;;;;;;;;16.47;64.56;97667.56;5059125;28;20010;-51
2022/06/08 01:30:53;;;;;;;;;;;;;;;16.64;64.56;97658.16;5063183;28;19920;-53
2022/06/08 01:33:45;;;;;;;;;;;;;;;16.63;64.69;97653.84;5063432;28;20406;-52
2022/06/08 01:36:38;;;;;;;;;;;;;;;16.45;64.80;97658.91;5062262;28;20055;-52
2022/06/08 01:39:28;;;;;;;;;;;;;;;16.52;64.50;97648.13;5073163;28;19920;-53
2022/06/08 01:42:25;;;;;;;;;;;;;;;16.46;64.65;97644.06;5074463;28;20295;-53
2022/06/08 01:45:33;;;;;;;;;;;;;;;16.55;64.77;97641.91;5080155;28;20058;-52
2022/06/08 01:48:26;;;;;;;;;;;;;;;16.55;64.74;97639.16;5068419;28;19933;-52
2022/06/08 01:51:21;;;;;;;;;;;;;;;16.58;64.50;97637.66;5071047;28;19928;-53
2022/06/08 01:54:14;;;;;;;;;;;;;;;16.54;64.79;97629.34;5061036;28;19969;-51
2022/06/08 01:57:05;;;;;;;;;;;;;;;16.73;64.16;97632.16;5078617;28;19932;-51
2022/06/08 01:59:59;;;;;;;;;;;;;;;16.59;64.60;97636.50;5061988;28;19920;-52
2022/06/08 02:02:53;;;;;;;;;;;;;;;16.76;63.96;97630.63;5066494;28;20049;-52
2022/06/08 02:05:46;;;;;;;;;;;;;;;16.44;64.62;97630.69;5062322;28;20690;-53
2022/06/08 02:08:38;;;;;;;;;;;;;;;16.58;64.22;97629.44;5076028;28;20082;-52
2022/06/08 02:11:28;;;;;;;;;;;;;;;16.68;63.72;97629.69;5064583;28;19924;-51
2022/06/08 02:14:17;;;;;;;;;;;;;;;16.49;64.55;97622.19;5075514;28;20224;-52
2022/06/08 02:17:09;;;;;;;;;;;;;;;16.29;65.12;97623.28;5061427;28;19926;-53
2022/06/08 02:19:59;;;;;;;;;;;;;;;16.20;65.19;97623.47;5069324;28;20436;-52
2022/06/08 02:22:51;;;;;;;;;;;;;;;16.04;65.34;97617.22;5060383;28;19930;-52
2022/06/08 02:25:41;;;;;;;;;;;;;;;16.07;65.48;97613.75;5064043;28;19924;-52
2022/06/08 02:28:30;;;;;;;;;;;;;;;15.92;65.92;97620.00;5057119;28;20248;-52
2022/06/08 02:31:21;;;;;;;;;;;;;;;16.00;65.77;97610.84;5059640;28;20020;-52
2022/06/08 02:34:31;;;;;;;;;;;;;;;16.01;65.76;97609.69;5060996;28;20014;-52
2022/06/08 02:37:26;;;;;;;;;;;;;;;15.94;65.99;97612.25;5074679;28;20297;-52
2022/06/08 02:40:17;;;;;;;;;;;;;;;15.93;65.99;97621.63;5065435;28;20533;-53
2022/06/08 02:43:10;;;;;;;;;;;;;;;15.95;65.81;97619.31;5077897;28;20012;-51
2022/06/08 02:46:06;;;;;;;;;;;;;;;16.08;65.38;97615.31;5074571;28;20277;-51
2022/06/08 02:48:55;;;;;;;;;;;;;;;15.96;65.63;97608.00;5096363;28;19931;-52
2022/06/08 02:51:46;;;;;;;;;;;;;;;15.96;65.88;97616.22;5094991;28;20074;-53
2022/06/08 02:54:38;;;;;;;;;;;;;;;16.07;65.54;97610.22;5085100;28;19920;-52
2022/06/08 02:57:31;;;;;;;;;;;;;;;15.89;66.17;97609.78;5096138;28;20370;-52
2022/06/08 03:00:21;;;;;;;;;;;;;;;15.91;66.23;97618.44;5069086;28;19920;-53
2022/06/08 03:03:11;;;;;;;;;;;;;;;15.89;66.26;97612.53;5094144;28;19934;-52
2022/06/08 03:06:02;;;;;;;;;;;;;;;15.91;66.24;97613.75;5099073;28;19930;-52
2022/06/08 03:08:57;;;;;;;;;;;;;;;15.95;66.12;97608.38;5079905;28;19926;-52
2022/06/08 03:11:48;;;;;;;;;;;;;;;15.83;66.51;97614.72;5089412;28;19934;-51
2022/06/08 03:14:36;;;;;;;;;;;;;;;15.88;66.62;97619.16;5091056;28;19969;-51
2022/06/08 03:17:25;;;;;;;;;;;;;;;15.98;66.29;97618.63;5094449;28;19928;-51
2022/06/08 03:20:20;;;;;;;;;;;;;;;16.31;65.09;97617.44;5089235;28;19931;-51
2022/06/08 03:23:10;;;;;;;;;;;;;;;16.16;65.75;97617.09;5095440;28;19920;-52
2022/06/08 03:26:01;;;;;;;;;;;;;;;16.02;65.82;97622.22;5091093;28;19920;-52
2022/06/08 03:28:53;;;;;;;;;;;;;;;15.96;66.13;97618.16;5095152;28;20375;-52
2022/06/08 03:31:42;;;;;;;;;;;;;;;16.21;65.24;97616.03;5082934;28;20072;-52
2022/06/08 03:34:32;;;;;;;;;;;;;;;16.01;65.77;97612.44;5089160;28;19920;-52
2022/06/08 03:37:21;;;;;;;;;;;;;;;15.91;66.18;97611.00;5087952;28;19989;-52
2022/06/08 03:40:20;;;;;;;;;;;;;;;16.06;65.89;97612.16;5068872;28;20421;-52
2022/06/08 03:43:11;;;;;;;;;;;;;;;16.08;65.93;97620.81;5052681;28;19921;-52
2022/06/08 03:46:00;;;;;;;;;;;;;;;16.34;65.42;97617.53;5042387;28;19928;-52
2022/06/08 03:48:51;;;;;;;;;;;;;;;16.28;65.05;97620.91;5056527;28;19951;-52
2022/06/08 03:51:40;;;;;;;;;;;;;;;16.20;65.06;97619.94;5043522;28;19925;-52
2022/06/08 03:54:29;;;;;;;;;;;;;;;16.29;65.11;97625.22;5061210;28;20071;-53
2022/06/08 03:57:18;;;;;;;;;;;;;;;16.09;65.39;97618.91;5059255;28;19924;-51
2022/06/08 04:03:29;;;;;;;;;;;;;;;15.86;66.53;97619.47;5047912;28;20347;-52
2022/06/08 04:06:19;;;;;;;;;;;;;;;16.05;65.67;97627.00;5041376;28;19924;-52
2022/06/08 04:09:09;;;;;;;;;;;;;;;15.97;65.89;97622.50;5053570;28;20231;-52
2022/06/08 04:11:59;;;;;;;;;;;;;;;16.19;65.08;97624.63;5043761;28;19932;-53
2022/06/08 04:14:50;;;;;;;;;;;;;;;15.96;65.92;97620.91;5047648;28;20399;-52
2022/06/08 04:17:41;;;;;;;;;;;;;;;15.83;66.15;97622.16;5035379;28;19956;-49
2022/06/08 04:20:54;;;;;;;;;;;;;;;16.19;65.58;97616.41;5040353;28;19920;-52
2022/06/08 04:23:45;;;;;;;;;;;;;;;15.82;66.48;97621.38;5045654;28;19935;-52
2022/06/08 04:26:36;;;;;;;;;;;;;;;15.90;66.80;97619.59;5045896;28;19928;-52
2022/06/08 04:36:29;;;;;;;;;;;;;;;16.16;65.86;97617.09;5056206;28;20081;-52
2022/06/08 04:39:18;;;;;;;;;;;;;;;16.70;64.41;97615.59;5065136;28;19980;-52
2022/06/08 04:42:14;;;;;;;;;;;;;;;16.46;64.99;97605.66;5057842;28;20259;-51
2022/06/08 04:45:05;;;;;;;;;;;;;;;16.67;64.26;97611.63;5076786;28;20101;-52
2022/06/08 04:47:55;;;;;;;;;;;;;;;16.72;64.37;97613.31;5066776;28;20014;-52
2022/06/08 04:51:14;;;;;;;;;;;;;;;16.83;63.78;97613.53;5076648;28;19963;-52
2022/06/08 04:54:05;;;;;;;;;;;;;;;16.82;64.09;97609.22;5063997;28;20403;-53
2022/06/08 04:56:55;;;;;;;;;;;;;;;16.73;64.20;97612.97;5080119;28;20504;-52
2022/06/08 04:59:44;;;;;;;;;;;;;;;16.67;64.78;97613.56;5079023;28;20424;-52
2022/06/08 05:02:47;;;;;;;;;;;;;;;16.97;63.51;97608.34;5079524;28;20339;-53
2022/06/08 05:05:48;;;;;;;;;;;;;;;16.57;64.86;97614.94;5063652;28;20861;-53
2022/06/08 05:12:03;;;;;;;;;;;;;;;16.77;64.27;97616.56;5077725;28;20054;-52
2022/06/08 05:14:52;;;;;;;;;;;;;;;16.45;65.58;97620.50;5055469;28;19921;-53
2022/06/08 05:17:40;;;;;;;;;;;;;;;16.66;65.30;97621.00;5077175;28;19993;-53
2022/06/08 05:20:55;;;;;;;;;;;;;;;16.59;64.99;97618.09;5056558;28;19967;-51
2022/06/08 05:23:55;;;;;;;;;;;;;;;16.70;65.01;97613.63;5075294;28;19926;-53
2022/06/08 05:26:55;;;;;;;;;;;;;;;16.75;63.80;97613.38;5070654;28;19924;-53
2022/06/08 05:29:44;;;;;;;;;;;;;;;16.86;63.85;97610.09;5063114;28;19924;-52
2022/06/08 05:32:33;;;;;;;;;;;;;;;16.87;63.42;97603.44;5055355;28;19924;-52
2022/06/08 05:35:23;;;;;;;;;;;;;;;16.90;63.58;97610.97;5077490;28;19943;-49
2022/06/08 05:38:13;;;;;;;;;;;;;;;17.13;62.61;97594.56;5079188;28;20621;-52
2022/06/08 05:41:28;;;;;;;;;;;;;;;17.45;62.26;97604.22;5069806;28;20332;-53
2022/06/08 05:44:20;;;;;;;;;;;;;;;17.34;62.61;97596.94;5071130;28;19932;-51
2022/06/08 05:47:13;;;;;;;;;;;;;;;17.31;62.45;97594.91;5076853;28;19924;-53
2022/06/08 05:50:02;;;;;;;;;;;;;;;17.40;61.61;97595.47;5076311;28;19929;-52
2022/06/08 05:52:52;;;;;;;;;;;;;;;17.42;61.02;97595.94;5092047;28;20113;-52
2022/06/08 05:55:41;;;;;;;;;;;;;;;17.36;61.11;97586.38;5085400;28;19921;-53
2022/06/08 05:58:31;;;;;;;;;;;;;;;17.49;61.62;97585.06;5087183;28;19927;-52
2022/06/08 06:01:27;;;;;;;;;;;;;;;17.85;60.52;97581.03;5088845;28;19920;-53
2022/06/08 06:04:15;;;;;;;;;;;;;;;17.78;61.08;97587.16;5078864;28;20227;-51
2022/06/08 06:07:04;;;;;;;;;;;;;;;17.64;61.00;97600.66;5086262;28;19921;-52
2022/06/08 06:09:53;;;;;;;;;;;;;;;17.79;61.12;97588.78;5079050;28;19920;-49
2022/06/08 06:12:46;;;;;;;;;;;;;;;17.63;59.72;97587.25;5079670;28;19962;-52
2022/06/08 06:15:37;;;;;;;;;;;;;;;17.75;59.93;97582.44;5072428;28;20314;-52
2022/06/08 06:18:26;;;;;;;;;;;;;;;17.93;59.76;97579.97;5073884;28;19924;-52
2022/06/08 06:21:27;;;;;;;;;;;;;;;18.02;59.26;97586.00;5073900;28;19924;-52
2022/06/08 06:24:36;;;;;;;;;;;;;;;18.00;59.86;97585.59;5063851;28;19932;-51
2022/06/08 06:27:27;;;;;;;;;;;;;;;18.08;59.80;97577.47;5072268;28;19928;-53
2022/06/08 06:30:28;;;;;;;;;;;;;;;18.08;59.34;97572.75;5074168;28;20308;-53
2022/06/08 06:33:43;;;;;;;;;;;;;;;18.15;58.32;97578.34;5075729;28;19920;-52
2022/06/08 06:36:32;;;;;;;;;;;;;;;18.26;58.49;97573.81;5083815;28;19920;-52
2022/06/08 06:39:26;;;;;;;;;;;;;;;18.65;58.46;97572.81;5071094;28;20294;-51
2022/06/08 06:42:25;;;;;;;;;;;;;;;18.98;56.57;97566.56;5079327;28;20307;-51
2022/06/08 06:45:50;;;;;;;;;;;;;;;19.67;54.33;97569.72;5044386;28;19932;-51
2022/06/08 06:48:58;;;;;;;;;;;;;;;19.61;54.76;97565.72;5076056;28;20360;-49
2022/06/08 06:51:46;;;;;;;;;;;;;;;19.52;54.79;97565.19;5059460;28;20076;-52
2022/06/08 06:54:36;;;;;;;;;;;;;;;19.39;54.99;97561.94;5086702;28;19927;-53
2022/06/08 06:57:27;;;;;;;;;;;;;;;19.55;55.74;97565.25;5073091;28;20379;-53
2022/06/08 07:00:17;;;;;;;;;;;;;;;19.41;54.54;97572.56;5090470;28;19924;-53
2022/06/08 07:03:05;;;;;;;;;;;;;;;19.47;54.11;97563.56;5073321;28;20327;-49
2022/06/08 07:05:56;;;;;;;;;;;;;;;19.61;54.18;97562.97;5091175;28;19920;-53
2022/06/08 07:08:45;;;;;;;;;;;;;;;19.83;53.03;97553.72;5085344;28;20293;-53
2022/06/08 07:12:00;;;;;;;;;;;;;;;19.67;53.29;97566.94;5086358;28;20478;-53
2022/06/08 07:14:56;;;;;;;;;;;;;;;20.19;51.83;97554.00;5079318;28;19942;-53
2022/06/08 07:17:50;;;;;;;;;;;;;;;19.86;53.35;97558.44;5079436;28;20361;-52
2022/06/08 07:20:41;;;;;;;;;;;;;;;19.78;53.81;97551.31;5065429;28;19920;-52
2022/06/08 07:23:31;;;;;;;;;;;;;;;19.81;52.50;97547.75;5072519;28;19924;-53
2022/06/08 07:26:44;;;;;;;;;;;;;;;19.79;51.98;97536.34;5077606;28;20026;-52
2022/06/08 07:29:58;;;;;;;;;;;;;;;19.85;52.24;97545.84;5084610;28;20285;-53
2022/06/08 07:32:54;;;;;;;;;;;;;;;19.82;52.73;97541.09;5084566;28;19927;-52
2022/06/08 07:35:42;;;;;;;;;;;;;;;19.93;52.39;97534.88;5089008;28;20203;-54
2022/06/08 07:38:32;;;;;;;;;;;;;;;19.80;53.00;97526.91;5086874;28;19931;-52
2022/06/08 07:41:47;;;;;;;;;;;;;;;19.91;52.92;97528.94;5061462;28;20268;-53
2022/06/08 07:44:35;;;;;;;;;;;;;;;20.27;49.27;97519.75;5066272;28;19931;-54
2022/06/08 07:47:24;;;;;;;;;;;;;;;20.31;48.48;97523.34;5060335;28;20273;-53
2022/06/08 07:50:11;;;;;;;;;;;;;;;19.97;50.40;97519.16;5062288;28;19924;-53
2022/06/08 07:53:00;;;;;;;;;;;;;;;19.92;51.07;97512.03;5060459;28;19920;-54
2022/06/08 07:55:50;;;;;;;;;;;;;;;19.79;50.75;97508.78;5061346;28;19928;-53
2022/06/08 07:58:38;;;;;;;;;;;;;;;19.57;50.73;97498.72;5059594;28;20301;-53
2022/06/08 08:01:32;;;;;;;;;;;;;;;19.21;50.44;97500.34;5056999;28;19935;-53
2022/06/08 08:04:21;;;;;;;;;;;;;;;19.04;51.09;97505.28;5064276;28;20457;-53
2022/06/08 08:07:10;;;;;;;;;;;;;;;19.07;51.37;97507.31;5058976;28;20447;-52
2022/06/08 08:09:59;;;;;;;;;;;;;;;19.22;51.91;97497.19;5061034;28;19924;-52
2022/06/08 08:12:49;;;;;;;;;;;;;;;19.34;49.35;97496.94;5062329;28;19920;-53
2022/06/08 08:15:37;;;;;;;;;;;;;;;19.72;48.57;97500.47;5053411;28;20023;-52
2022/06/08 08:18:26;;;;;;;;;;;;;;;20.24;47.93;97489.38;5055519;28;20280;-53
2022/06/08 08:21:15;;;;;;;;;;;;;;;20.57;47.40;97494.72;5055600;28;19924;-52
2022/06/08 08:24:03;;;;;;;;;;;;;;;20.80;47.09;97499.94;5056385;28;19921;-55
2022/06/08 08:26:52;;;;;;;;;;;;;;;20.80;45.25;97493.63;5053849;28;20041;-55
2022/06/08 08:30:06;;;;;;;;;;;;;;;20.81;45.91;97490.47;5048867;28;19975;-54
2022/06/08 08:32:57;;;;;;;;;;;;;;;20.41;45.96;97486.75;5049280;28;20015;-51
2022/06/08 08:35:45;;;;;;;;;;;;;;;20.40;45.55;97496.19;5047452;28;19932;-51
2022/06/08 08:38:34;;;;;;;;;;;;;;;20.08;45.02;97482.22;5060491;28;20480;-52
2022/06/08 08:44:54;;;;;;;;;;;;;;;20.14;43.90;97468.84;5056325;28;20276;-53
2022/06/08 08:47:46;;;;;;;;;;;;;;;19.88;44.26;97459.63;5059804;28;19924;-54
2022/06/08 08:50:39;;;;;;;;;;;;;;;19.91;45.30;97449.78;5055648;28;20082;-53
2022/06/08 08:53:30;;;;;;;;;;;;;;;20.11;44.82;97455.81;5054790;28;19921;-54
2022/06/08 08:56:25;;;;;;;;;;;;;;;20.41;43.82;97453.63;5048924;28;19928;-55
2022/06/08 08:59:38;;;;;;;;;;;;;;;20.33;43.24;97442.94;5039109;28;20327;-54
2022/06/08 09:05:37;;;;;;;;;;;;;;;20.46;42.88;97424.91;5054243;28;19920;-53
2022/06/08 09:08:51;;;;;;;;;;;;;;;20.89;43.71;97425.03;5059412;28;20403;-53
2022/06/08 09:12:05;;;;;;;;;;;;;;;21.27;44.25;97420.75;5059223;28;19924;-55
2022/06/08 09:15:12;;;;;;;;;;;;;;;21.30;43.43;97417.22;5046819;28;19976;-51
2022/06/08 09:18:33;;;;;;;;;;;;;;;21.63;43.60;97415.28;5055692;28;20672;-52
2022/06/08 09:21:52;;;;;;;;;;;;;;;21.53;41.96;97411.31;5041720;28;19921;-53
2022/06/08 09:24:41;;;;;;;;;;;;;;;21.32;42.78;97400.28;5056194;28;19940;-53
2022/06/08 09:27:31;;;;;;;;;;;;;;;21.21;42.93;97400.22;5058371;28;19928;-52
2022/06/08 09:30:20;;;;;;;;;;;;;;;20.81;42.39;97391.09;5051293;28;19929;-50
2022/06/08 09:33:17;;;;;;;;;;;;;;;20.96;42.17;97399.41;5039934;28;19928;-53
2022/06/08 09:36:30;;;;;;;;;;;;;;;21.19;41.62;97395.09;5038325;28;20472;-52
2022/06/08 09:39:23;;;;;;;;;;;;;;;21.27;42.25;97400.63;5062394;28;19927;-52
2022/06/08 09:42:19;;;;;;;;;;;;;;;21.11;41.62;97393.50;5099648;28;20015;-53
2022/06/08 09:45:21;;;;;;;;;;;;;;;20.67;41.56;97391.06;5097431;28;19924;-53
2022/06/08 09:51:50;;;;;;;;;;;;;;;20.41;42.72;97384.66;5067741;28;19975;-53
2022/06/08 09:54:43;;;;;;;;;;;;;;;20.53;42.42;97375.25;5098459;28;19931;-51
2022/06/08 09:57:36;;;;;;;;;;;;;;;20.28;42.69;97380.66;5098592;28;19927;-53
2022/06/08 10:00:28;;;;;;;;;;;;;;;20.30;42.70;97370.03;5094790;28;19924;-52
2022/06/08 10:03:20;;;;;;;;;;;;;;;20.33;42.28;97369.25;5091405;28;19927;-52
2022/06/08 10:06:16;;;;;;;;;;;;;;;20.41;41.38;97359.03;5092213;28;20703;-53
2022/06/08 10:09:08;;;;;;;;;;;;;;;20.62;42.51;97361.09;5080939;28;19920;-53
2022/06/08 10:12:01;;;;;;;;;;;;;;;20.41;40.81;97357.06;5098413;28;20060;-52
2022/06/08 10:14:49;;;;;;;;;;;;;;;20.41;40.12;97357.06;5089373;28;19962;-53
2022/06/08 10:17:39;;;;;;;;;;;;;;;20.46;39.20;97357.88;5096493;28;19920;-53
2022/06/08 10:20:51;;;;;;;;;;;;;;;20.38;39.42;97352.31;5096031;28;20244;-52
2022/06/08 10:23:41;;;;;;;;;;;;;;;20.34;40.58;97351.50;5088834;28;20032;-52
2022/06/08 10:26:54;;;;;;;;;;;;;;;20.31;39.57;97346.78;5089821;28;20037;-51
2022/06/08 10:29:45;;;;;;;;;;;;;;;20.39;39.51;97348.38;5094549;28;20165;-54
2022/06/08 10:32:35;;;;;;;;;;;;;;;20.50;39.64;97347.66;5074892;28;19927;-53
2022/06/08 10:35:26;;;;;;;;;;;;;;;20.51;39.45;97341.75;5094786;28;19926;-52
2022/06/08 10:38:17;;;;;;;;;;;;;;;20.55;39.32;97337.00;5089224;28;19919;-53
2022/06/08 10:44:33;;;;;;;;;;;;;;;20.53;39.58;97336.63;5057705;28;19930;-53
2022/06/08 10:47:27;;;;;;;;;;;;;;;20.62;39.38;97339.03;5054674;28;20655;-53
2022/06/08 10:50:17;;;;;;;;;;;;;;;20.69;40.72;97336.25;5058864;28;19920;-53
2022/06/08 10:56:55;;;;;;;;;;;;;;;20.87;40.47;97328.00;5016584;28;20219;-53
2022/06/08 10:59:43;;;;;;;;;;;;;;;20.85;38.89;97317.34;5055406;28;20347;-55
2022/06/08 11:02:33;;;;;;;;;;;;;;;20.88;39.15;97316.56;5050092;28;19934;-53
2022/06/08 11:05:30;;;;;;;;;;;;;;;21.05;39.65;97312.25;5044745;28;19928;-53
2022/06/08 11:08:19;;;;;;;;;;;;;;;21.12;38.72;97312.22;5050772;28;19931;-54
2022/06/08 11:11:11;;;;;;;;;;;;;;;21.26;40.01;97303.16;5049672;28;19921;-53
2022/06/08 11:17:17;;;;;;;;;;;;;;;21.27;38.51;97295.66;5053228;28;20033;-53
2022/06/08 11:20:13;;;;;;;;;;;;;;;21.55;37.77;97292.84;5048117;28;19921;-50
2022/06/08 11:23:04;;;;;;;;;;;;;;;21.84;38.19;97288.03;5051997;28;20051;-54
2022/06/08 11:26:13;;;;;;;;;;;;;;;21.79;37.76;97288.44;5032876;28;19932;-49
2022/06/08 11:32:22;;;;;;;;;;;;;;;21.45;37.11;97296.44;5035822;28;19932;-53
2022/06/08 11:35:23;;;;;;;;;;;;;;;21.48;37.40;97283.81;5043493;28;19920;-54
2022/06/08 11:38:16;;;;;;;;;;;;;;;21.43;36.85;97287.75;5050754;28;20004;-52
2022/06/08 11:41:26;;;;;;;;;;;;;;;21.56;37.28;97290.88;5078350;28;20260;-55
2022/06/08 11:44:43;;;;;;;;;;;;;;;21.80;37.45;97276.19;5075908;28;19982;-54
2022/06/08 11:47:33;;;;;;;;;;;;;;;21.56;36.48;97283.38;5080131;28;19933;-55
2022/06/08 11:50:24;;;;;;;;;;;;;;;21.74;37.07;97271.50;5078926;28;19924;-54
2022/06/08 11:53:17;;;;;;;;;;;;;;;22.08;35.65;97275.28;5065797;28;20386;-55
2022/06/08 11:56:09;;;;;;;;;;;;;;;22.18;35.72;97273.69;5078964;28;19924;-54
2022/06/08 11:59:23;;;;;;;;;;;;;;;22.09;35.71;97253.94;5074505;28;19924;-52
2022/06/08 12:02:18;;;;;;;;;;;;;;;22.03;36.43;97259.09;5069301;28;19935;-54
2022/06/08 12:05:07;;;;;;;;;;;;;;;21.84;35.60;97262.34;5076392;28;20461;-52
2022/06/08 12:08:01;;;;;;;;;;;;;;;21.84;35.60;97254.84;5074947;28;19930;-54
2022/06/08 12:10:50;;;;;;;;;;;;;;;21.85;35.95;97256.44;5076233;28;20270;-53
2022/06/08 12:13:52;;;;;;;;;;;;;;;22.00;36.57;97248.03;5077053;28;20054;-53
2022/06/08 12:16:51;;;;;;;;;;;;;;;22.04;37.49;97251.59;5078822;28;20219;-54
2022/06/08 12:19:43;;;;;;;;;;;;;;;22.20;36.89;97236.09;5075216;28;19924;-55
2022/06/08 12:22:33;;;;;;;;;;;;;;;22.32;37.22;97242.38;5072980;28;19920;-55
2022/06/08 12:25:27;;;;;;;;;;;;;;;22.41;34.85;97235.19;5083524;28;19924;-54
2022/06/08 12:28:18;;;;;;;;;;;;;;;22.69;35.48;97247.25;5074308;28;20049;-54
2022/06/08 12:31:07;;;;;;;;;;;;;;;22.76;33.80;97236.13;5076433;28;19924;-52
2022/06/08 12:33:55;;;;;;;;;;;;;;;22.77;34.23;97229.38;5079419;28;20313;-55
2022/06/08 12:36:44;;;;;;;;;;;;;;;22.51;33.84;97230.00;5080932;28;20061;-54
2022/06/08 12:39:33;;;;;;;;;;;;;;;22.66;33.98;97217.63;5078847;28;19964;-55
2022/06/08 12:42:27;;;;;;;;;;;;;;;22.51;33.59;97208.63;5077742;28;20155;-54
2022/06/08 12:45:24;;;;;;;;;;;;;;;22.47;33.73;97205.88;5080391;28;20355;-54
2022/06/08 12:48:23;;;;;;;;;;;;;;;22.61;34.90;97209.75;5077007;28;20340;-53
2022/06/08 12:51:22;;;;;;;;;;;;;;;22.72;34.41;97200.16;5073696;28;20434;-53
2022/06/08 12:54:14;;;;;;;;;;;;;;;22.69;33.66;97200.16;5074803;28;20443;-53
2022/06/08 12:57:10;;;;;;;;;;;;;;;22.68;33.38;97195.84;5070072;28;20384;-54
2022/06/08 13:00:00;;;;;;;;;;;;;;;22.69;32.40;97200.97;5074917;28;19920;-54
2022/06/08 13:02:51;;;;;;;;;;;;;;;22.57;32.31;97203.44;5080676;28;19931;-54
2022/06/08 13:08:54;;;;;;;;;;;;;;;22.82;33.41;97190.19;5080231;28;19924;-53
2022/06/08 13:12:08;;;;;;;;;;;;;;;22.61;32.13;97193.91;5064248;28;20405;-52
2022/06/08 13:14:56;;;;;;;;;;;;;;;22.70;33.31;97197.03;5076784;28;19922;-53
2022/06/08 13:17:49;;;;;;;;;;;;;;;22.56;34.11;97193.56;5062521;28;19924;-54
2022/06/08 13:20:39;;;;;;;;;;;;;;;22.55;33.54;97192.00;5069871;28;19931;-53
2022/06/08 13:23:27;;;;;;;;;;;;;;;22.54;33.92;97195.97;5078649;28;19959;-53
2022/06/08 13:26:20;;;;;;;;;;;;;;;22.42;34.38;97186.16;5076825;28;20015;-55
2022/06/08 13:33:56;;;;;;;;;;;;;;;22.52;34.24;97181.72;5074551;28;19931;-52
2022/06/08 13:36:21;;;;;;;;;;;;;;;22.84;33.17;97179.47;5076729;28;20098;-53
2022/06/08 13:39:17;;;;;;;;;;;;;;;23.09;34.19;97178.47;5074138;28;19927;-50
2022/06/08 13:42:07;;;;;;;;;;;;;;;23.21;34.34;97177.94;5079145;28;19927;-52
2022/06/08 13:44:56;;;;;;;;;;;;;;;23.23;32.98;97184.66;5068517;28;19924;-54
2022/06/08 13:47:45;;;;;;;;;;;;;;;22.79;32.64;97185.44;5080780;28;20287;-52
2022/06/08 13:50:39;;;;;;;;;;;;;;;22.73;32.45;97176.81;5073950;28;21291;-52
2022/06/08 13:53:29;;;;;;;;;;;;;;;22.55;32.83;97175.41;5072400;28;19935;-54
2022/06/08 13:56:23;;;;;;;;;;;;;;;22.52;33.22;97167.91;5076223;28;20030;-55
2022/06/08 13:59:36;;;;;;;;;;;;;;;22.61;33.36;97173.75;5075632;28;19920;-54
2022/06/08 14:02:27;;;;;;;;;;;;;;;22.88;34.60;97180.25;5074033;28;19920;-54
2022/06/08 14:05:16;;;;;;;;;;;;;;;22.99;33.04;97177.38;5078258;28;19924;-52
2022/06/08 14:14:20;;;;;;;;;;;;;;;23.17;32.51;97178.00;5062765;28;20030;-53
2022/06/08 14:17:09;;;;;;;;;;;;;;;23.10;32.70;97166.19;5071679;28;19931;-53
2022/06/08 14:19:59;;;;;;;;;;;;;;;23.10;34.92;97168.97;5071459;28;20391;-54
2022/06/08 14:22:48;;;;;;;;;;;;;;;23.20;33.36;97156.97;5071524;28;20276;-56
2022/06/08 14:25:38;;;;;;;;;;;;;;;23.35;33.62;97147.31;5084761;28;19929;-54
2022/06/08 14:28:27;;;;;;;;;;;;;;;23.38;33.27;97140.91;5078866;28;19935;-52
2022/06/08 14:31:16;;;;;;;;;;;;;;;23.34;33.68;97144.97;5074582;28;19924;-54
2022/06/08 14:34:21;;;;;;;;;;;;;;;23.42;34.60;97140.88;5076569;28;19969;-54
2022/06/08 14:37:11;;;;;;;;;;;;;;;23.51;34.89;97141.97;5075116;28;20533;-55
2022/06/08 14:40:25;;;;;;;;;;;;;;;23.51;33.55;97136.41;5075977;28;19932;-54
2022/06/08 14:43:17;;;;;;;;;;;;;;;23.57;34.53;97131.19;5078379;28;19924;-53
2022/06/08 14:46:10;;;;;;;;;;;;;;;23.61;33.34;97133.94;5079612;28;20320;-48
2022/06/08 14:48:58;;;;;;;;;;;;;;;23.62;33.79;97138.25;5073125;28;20232;-54
2022/06/08 14:54:59;;;;;;;;;;;;;;;23.22;33.93;97126.84;5074221;28;19920;-55
2022/06/08 14:57:48;;;;;;;;;;;;;;;23.16;34.40;97125.75;5070067;28;20378;-55
2022/06/08 15:00:39;;;;;;;;;;;;;;;22.96;33.31;97126.38;5069805;28;19928;-53
2022/06/08 15:03:28;;;;;;;;;;;;;;;22.83;33.92;97133.59;5078262;28;19950;-53
2022/06/08 15:06:17;;;;;;;;;;;;;;;22.95;34.63;97141.41;5064195;28;19925;-52
2022/06/08 15:09:06;;;;;;;;;;;;;;;23.00;34.71;97132.66;5074931;28;20364;-49
2022/06/08 15:12:21;;;;;;;;;;;;;;;22.90;34.14;97141.06;5071637;28;19932;-54
2022/06/08 15:15:13;;;;;;;;;;;;;;;22.89;34.31;97140.28;5073596;28;19924;-54
2022/06/08 15:18:27;;;;;;;;;;;;;;;22.92;34.79;97136.69;5072306;28;20232;-53
2022/06/08 15:21:16;;;;;;;;;;;;;;;22.92;34.68;97124.84;5069135;28;19924;-55
2022/06/08 15:24:05;;;;;;;;;;;;;;;22.98;35.89;97128.72;5075094;28;19974;-56
2022/06/08 15:26:54;;;;;;;;;;;;;;;22.93;34.85;97129.19;5070267;28;19927;-55
2022/06/08 15:30:08;;;;;;;;;;;;;;;22.80;33.61;97123.34;5071527;28;20200;-53
2022/06/08 15:32:56;;;;;;;;;;;;;;;22.84;34.29;97124.09;5073543;28;20265;-55
2022/06/08 15:35:56;;;;;;;;;;;;;;;22.99;34.84;97119.22;5075915;28;20688;-55
2022/06/08 15:38:46;;;;;;;;;;;;;;;22.96;33.79;97108.97;5072334;28;19971;-55
2022/06/08 15:41:35;;;;;;;;;;;;;;;22.99;34.09;97103.38;5036513;28;19920;-55
2022/06/08 15:44:24;;;;;;;;;;;;;;;22.85;33.96;97119.31;5057956;28;19931;-53
2022/06/08 15:47:19;;;;;;;;;;;;;;;22.81;34.12;97113.84;5060196;28;20205;-55
2022/06/08 15:50:10;;;;;;;;;;;;;;;22.85;35.17;97106.28;5057107;28;19921;-57
2022/06/08 15:53:00;;;;;;;;;;;;;;;22.82;35.07;97118.19;5061307;28;20011;-54
2022/06/08 15:55:49;;;;;;;;;;;;;;;22.60;35.37;97100.22;5056272;28;20400;-56
2022/06/08 15:58:37;;;;;;;;;;;;;;;22.65;35.59;97106.09;5065182;28;19921;-56
2022/06/08 16:01:26;;;;;;;;;;;;;;;22.67;35.12;97108.44;5055782;28;20257;-54
2022/06/08 16:04:15;;;;;;;;;;;;;;;22.64;35.37;97107.28;5057491;28;19947;-53
2022/06/08 16:07:05;;;;;;;;;;;;;;;22.60;35.30;97108.53;5056301;28;19920;-51
2022/06/08 16:09:55;;;;;;;;;;;;;;;22.49;36.53;97103.88;5055661;28;19925;-51